createdAt,value
2023-03-07T00:01:34.510Z,42.80
2023-03-07T00:04:01.916Z,38.17
2023-03-07T00:06:29.345Z,33.60
2023-03-07T00:08:59.157Z,38.42
2023-03-07T00:11:26.605Z,37.55
2023-03-07T00:13:59.440Z,40.05
2023-03-07T00:16:26.870Z,44.42
2023-03-07T00:18:55.266Z,38.72
2023-03-07T00:21:23.149Z,37.40
2023-03-07T00:23:52.699Z,28.15
2023-03-07T00:26:21.291Z,34.00
2023-03-07T00:28:49.873Z,31.42
2023-03-07T00:31:17.642Z,32.70
2023-03-07T00:33:44.995Z,31.80
2023-03-07T00:36:13.942Z,34.00
2023-03-07T00:38:42.348Z,31.98
2023-03-07T00:41:11.179Z,32.63
2023-03-07T00:43:39.078Z,26.45
2023-03-07T00:46:06.679Z,28.85
2023-03-07T00:48:34.994Z,26.23
2023-03-07T00:51:02.394Z,27.23
2023-03-07T00:53:29.778Z,25.08
2023-03-07T00:55:58.282Z,26.50
2023-03-07T00:58:26.310Z,32.13
2023-03-07T01:00:53.791Z,24.25
2023-03-07T01:03:21.482Z,29.77
2023-03-07T01:05:48.804Z,23.55
2023-03-07T01:08:16.369Z,27.33
2023-03-07T01:10:44.102Z,24.42
2023-03-07T01:13:11.931Z,29.15
2023-03-07T01:15:39.578Z,23.27
2023-03-07T01:18:07.778Z,27.08
2023-03-07T01:20:35.793Z,26.13
2023-03-07T01:23:03.086Z,26.60
2023-03-07T01:25:30.828Z,26.27
2023-03-07T01:27:58.293Z,24.63
2023-03-07T01:30:26.044Z,27.17
2023-03-07T01:32:57.150Z,26.15
2023-03-07T01:35:24.883Z,27.27
2023-03-07T01:37:53.247Z,23.83
2023-03-07T01:40:22.033Z,28.75
2023-03-07T01:42:53.145Z,27.30
2023-03-07T01:45:40.327Z,28.70
2023-03-07T01:48:07.727Z,29.35
2023-03-07T01:50:35.181Z,24.63
2023-03-07T01:53:02.515Z,25.83
2023-03-07T01:55:32.467Z,31.73
2023-03-07T01:58:02.662Z,33.17
2023-03-07T02:00:30.080Z,29.92
2023-03-07T02:03:04.457Z,26.80
2023-03-07T02:05:35.595Z,27.05
2023-03-07T02:08:03.795Z,26.58
2023-03-07T02:10:31.783Z,27.50
2023-03-07T02:12:59.204Z,32.58
2023-03-07T02:15:26.456Z,29.90
2023-03-07T02:17:53.973Z,26.40
2023-03-07T02:20:41.211Z,25.30
2023-03-07T02:23:13.825Z,25.83
2023-03-07T02:25:44.551Z,25.38
2023-03-07T02:28:15.262Z,24.95
2023-03-07T02:30:59.231Z,30.70
2023-03-07T02:33:26.542Z,27.73
2023-03-07T02:35:57.225Z,29.00
2023-03-07T02:38:24.703Z,26.98
2023-03-07T02:40:53.338Z,29.27
2023-03-07T02:43:21.045Z,30.58
2023-03-07T02:45:48.396Z,24.38
2023-03-07T02:48:15.732Z,33.97
2023-03-07T02:50:43.029Z,33.10
2023-03-07T02:53:10.373Z,28.80
2023-03-07T02:55:37.698Z,28.23
2023-03-07T02:58:05.086Z,26.35
2023-03-07T03:00:32.412Z,27.77
2023-03-07T03:02:59.749Z,29.33
2023-03-07T03:05:27.226Z,28.92
2023-03-07T03:07:54.598Z,23.35
2023-03-07T03:10:22.032Z,29.42
2023-03-07T03:12:49.368Z,34.67
2023-03-07T03:15:16.722Z,25.75
2023-03-07T03:17:44.449Z,27.55
2023-03-07T03:20:12.786Z,26.80
2023-03-07T03:22:40.672Z,22.33
2023-03-07T03:25:09.988Z,27.73
2023-03-07T03:27:38.107Z,26.33
2023-03-07T03:30:06.267Z,24.17
2023-03-07T03:32:33.700Z,31.33
2023-03-07T03:35:01.092Z,28.48
2023-03-07T03:37:28.487Z,25.52
2023-03-07T03:39:55.831Z,29.85
2023-03-07T03:42:23.192Z,23.17
2023-03-07T03:44:50.690Z,28.25
2023-03-07T03:47:18.140Z,25.35
2023-03-07T03:49:45.570Z,30.30
2023-03-07T03:52:12.895Z,23.25
2023-03-07T03:54:40.273Z,24.25
2023-03-07T03:57:07.918Z,25.92
2023-03-07T03:59:35.231Z,25.75
2023-03-07T04:02:02.642Z,27.25
2023-03-07T04:04:29.966Z,26.88
2023-03-07T04:06:57.310Z,30.58
2023-03-07T04:09:24.706Z,24.00
2023-03-07T04:11:52.062Z,24.65
2023-03-07T04:14:19.409Z,24.35
2023-03-07T04:16:47.709Z,23.00
2023-03-07T04:19:15.300Z,26.17
2023-03-07T04:21:42.591Z,22.95
2023-03-07T04:24:10.165Z,25.00
2023-03-07T04:26:37.619Z,26.20
2023-03-07T04:29:05.047Z,29.80
2023-03-07T04:31:32.387Z,26.58
2023-03-07T04:33:59.741Z,29.48
2023-03-07T04:36:27.359Z,28.30
2023-03-07T04:38:54.667Z,26.50
2023-03-07T04:41:23.692Z,28.23
2023-03-07T04:43:51.078Z,25.33
2023-03-07T04:46:19.237Z,30.63
2023-03-07T04:48:47.352Z,26.00
2023-03-07T04:51:15.179Z,30.25
2023-03-07T04:53:42.493Z,28.27
2023-03-07T04:56:10.184Z,34.03
2023-03-07T04:58:37.899Z,30.45
2023-03-07T05:01:05.808Z,34.70
2023-03-07T05:03:33.260Z,30.67
2023-03-07T05:06:04.930Z,32.55
2023-03-07T05:08:32.462Z,31.70
2023-03-07T05:10:59.928Z,33.95
2023-03-07T05:13:27.308Z,32.90
2023-03-07T05:15:55.634Z,28.77
2023-03-07T05:18:23.361Z,26.92
2023-03-07T05:20:50.643Z,34.30
2023-03-07T05:23:18.922Z,32.00
2023-03-07T05:25:47.795Z,37.78
2023-03-07T05:28:17.025Z,32.42
2023-03-07T05:30:45.431Z,28.73
2023-03-07T05:33:12.841Z,31.35
2023-03-07T05:35:40.209Z,30.02
2023-03-07T05:38:07.813Z,34.30
2023-03-07T05:40:35.171Z,35.40
2023-03-07T05:43:02.590Z,35.33
2023-03-07T05:45:29.931Z,32.00
2023-03-07T05:47:57.351Z,34.33
2023-03-07T05:50:24.696Z,29.77
2023-03-07T05:52:53.142Z,28.15
2023-03-07T05:55:20.537Z,31.40
2023-03-07T05:57:47.933Z,29.88
2023-03-07T06:00:16.160Z,29.15
2023-03-07T06:02:43.615Z,25.90
2023-03-07T06:05:10.983Z,25.77
2023-03-07T06:07:38.393Z,25.33
2023-03-07T06:10:07.193Z,26.00
2023-03-07T06:12:34.546Z,30.02
2023-03-07T06:15:01.820Z,23.00
2023-03-07T06:17:29.190Z,25.05
2023-03-07T06:19:56.517Z,19.85
2023-03-07T06:22:23.966Z,24.85
2023-03-07T06:24:51.328Z,21.52
2023-03-07T06:27:18.615Z,24.02
2023-03-07T06:29:45.894Z,26.35
2023-03-07T06:32:13.286Z,19.50
2023-03-07T06:34:40.671Z,19.85
2023-03-07T06:37:07.985Z,18.83
2023-03-07T06:39:35.437Z,19.98
2023-03-07T06:42:02.781Z,19.25
2023-03-07T06:44:30.112Z,17.63
2023-03-07T06:46:57.483Z,20.95
2023-03-07T06:49:24.942Z,20.50
2023-03-07T06:51:52.260Z,21.15
2023-03-07T06:54:19.678Z,21.27
2023-03-07T06:56:47.104Z,22.27
2023-03-07T06:59:14.449Z,19.77
2023-03-07T07:01:41.854Z,19.85
2023-03-07T07:04:10.324Z,20.67
2023-03-07T07:06:37.829Z,16.10
2023-03-07T07:09:05.742Z,14.35
2023-03-07T07:11:33.135Z,17.83
2023-03-07T07:14:00.464Z,16.25
2023-03-07T07:16:27.834Z,17.95
2023-03-07T07:18:55.116Z,20.55
2023-03-07T07:21:22.477Z,15.95
2023-03-07T07:23:49.792Z,18.92
2023-03-07T07:26:17.173Z,19.88
2023-03-07T07:28:44.578Z,19.20
2023-03-07T07:31:11.889Z,16.92
2023-03-07T07:33:39.287Z,19.98
2023-03-07T07:36:07.291Z,22.20
2023-03-07T07:38:34.728Z,22.25
2023-03-07T07:41:02.441Z,20.33
2023-03-07T07:43:29.841Z,16.35
2023-03-07T07:45:57.275Z,17.48
2023-03-07T07:48:24.720Z,15.02
2023-03-07T07:50:52.202Z,20.83
2023-03-07T07:53:19.539Z,15.95
2023-03-07T07:55:46.864Z,14.77
2023-03-07T07:58:14.161Z,14.98
2023-03-07T08:00:41.660Z,15.32
2023-03-07T08:03:09.118Z,14.10
2023-03-07T08:05:36.544Z,19.50
2023-03-07T08:08:03.916Z,11.18
2023-03-07T08:10:31.282Z,11.43
2023-03-07T08:12:58.623Z,13.07
2023-03-07T08:15:26.059Z,16.77
2023-03-07T08:17:53.635Z,15.57
2023-03-07T08:20:23.546Z,14.75
2023-03-07T08:22:51.624Z,15.45
2023-03-07T08:25:21.903Z,16.42
2023-03-07T08:27:53.125Z,16.73
2023-03-07T08:30:20.733Z,15.63
2023-03-07T08:32:50.583Z,14.98
2023-03-07T08:35:18.139Z,17.15
2023-03-07T08:37:46.136Z,20.10
2023-03-07T08:40:14.601Z,19.08
2023-03-07T08:42:42.054Z,40.55
2023-03-07T08:45:10.067Z,89.18
2023-03-07T08:47:37.498Z,22.63
2023-03-07T08:50:06.358Z,32.97
2023-03-07T08:52:33.716Z,39.42
2023-03-07T08:55:01.049Z,34.28
2023-03-07T08:57:28.341Z,70.15
2023-03-07T08:59:55.688Z,26.20
2023-03-07T09:02:23.130Z,27.73
2023-03-07T09:04:50.502Z,31.80
2023-03-07T09:07:19.228Z,34.53
2023-03-07T09:09:46.618Z,29.08
2023-03-07T09:12:14.937Z,35.85
2023-03-07T09:14:42.558Z,40.30
2023-03-07T09:17:09.954Z,40.75
2023-03-07T09:19:37.340Z,30.70
2023-03-07T09:22:04.763Z,53.63
2023-03-07T09:24:32.259Z,34.05
2023-03-07T09:26:59.628Z,37.13
2023-03-07T09:29:27.208Z,50.55
2023-03-07T09:31:54.615Z,53.05
2023-03-07T09:34:21.984Z,41.30
2023-03-07T09:36:51.615Z,40.45
2023-03-07T09:39:19.048Z,38.13
2023-03-07T09:42:00.183Z,42.83
2023-03-07T09:44:47.473Z,47.80
2023-03-07T09:47:22.435Z,71.32
2023-03-07T09:49:51.156Z,57.95
2023-03-07T09:52:20.591Z,90.40
2023-03-07T09:54:51.550Z,153.48
2023-03-07T09:57:22.719Z,66.93
2023-03-07T09:59:53.694Z,51.70
2023-03-07T10:02:41.244Z,49.92
2023-03-07T10:05:28.554Z,45.72
2023-03-07T10:07:56.230Z,50.15
2023-03-07T10:10:25.332Z,48.83
2023-03-07T10:13:12.572Z,55.90
2023-03-07T10:15:59.788Z,50.20
2023-03-07T10:18:47.081Z,70.03
2023-03-07T10:21:34.491Z,48.40
2023-03-07T10:24:21.717Z,43.72
2023-03-07T10:26:58.204Z,63.03
2023-03-07T10:29:28.158Z,47.70
2023-03-07T10:31:57.464Z,43.88
2023-03-07T10:34:32.709Z,49.40
2023-03-07T10:39:53.260Z,47.88
2023-03-07T10:42:22.710Z,53.85
2023-03-07T10:44:51.139Z,50.45
2023-03-07T10:47:20.464Z,53.72
2023-03-07T10:49:48.712Z,48.72
2023-03-07T10:52:36.068Z,43.17
2023-03-07T10:55:23.765Z,44.90
2023-03-07T10:57:51.294Z,49.35
2023-03-07T11:00:19.597Z,46.15
2023-03-07T11:02:47.166Z,45.88
2023-03-07T11:05:34.509Z,45.15
2023-03-07T11:08:03.008Z,45.88
2023-03-07T11:10:37.046Z,47.00
2023-03-07T11:13:21.540Z,41.35
2023-03-07T11:15:49.368Z,42.17
2023-03-07T11:18:36.607Z,45.33
2023-03-07T11:21:04.103Z,46.55
2023-03-07T11:23:32.025Z,41.63
2023-03-07T11:26:19.299Z,45.33
2023-03-07T11:28:46.648Z,44.53
2023-03-07T11:31:33.870Z,46.85
2023-03-07T11:34:08.286Z,46.63
2023-03-07T11:36:37.093Z,44.28
2023-03-07T11:39:24.337Z,39.70
2023-03-07T11:41:56.427Z,44.60
2023-03-07T11:44:43.710Z,42.83
2023-03-07T11:47:16.725Z,37.67
2023-03-07T11:50:04.003Z,41.83
2023-03-07T11:52:51.220Z,45.83
2023-03-07T11:55:38.473Z,43.90
2023-03-07T11:58:26.150Z,44.05
2023-03-07T12:01:05.997Z,42.80
2023-03-07T12:03:54.079Z,42.22
2023-03-07T12:06:41.285Z,45.80
2023-03-07T12:09:30.123Z,41.78
2023-03-07T12:12:06.127Z,44.00
2023-03-07T12:14:40.974Z,44.05
2023-03-07T12:17:28.183Z,43.78
2023-03-07T12:20:15.435Z,45.83
2023-03-07T12:23:02.619Z,52.80
2023-03-07T12:25:50.024Z,36.53
2023-03-07T12:28:37.310Z,46.53
2023-03-07T12:31:24.519Z,43.17
2023-03-07T12:34:12.067Z,46.70
2023-03-07T12:36:42.136Z,38.35
2023-03-07T12:39:30.083Z,41.75
2023-03-07T12:42:12.671Z,45.60
2023-03-07T12:45:00.128Z,42.85
2023-03-07T12:47:47.524Z,45.13
2023-03-07T12:50:19.675Z,40.97
2023-03-07T12:52:49.558Z,37.47
2023-03-07T12:55:36.804Z,39.35
2023-03-07T12:58:24.083Z,39.88
2023-03-07T13:00:55.449Z,35.10
2023-03-07T13:03:29.898Z,37.83
2023-03-07T13:05:57.576Z,35.05
2023-03-07T13:08:25.309Z,29.50
2023-03-07T13:10:52.852Z,30.27
2023-03-07T13:13:40.082Z,30.88
2023-03-07T13:16:07.745Z,29.27
2023-03-07T13:18:35.100Z,27.08
2023-03-07T13:21:12.600Z,27.08
2023-03-07T13:23:39.983Z,25.48
2023-03-07T13:26:09.259Z,23.88
2023-03-07T13:28:57.622Z,25.10
2023-03-07T13:31:29.101Z,26.15
2023-03-07T13:33:56.670Z,29.58
2023-03-07T13:36:39.663Z,23.75
2023-03-07T13:39:26.852Z,24.27
2023-03-07T13:41:54.331Z,24.60
2023-03-07T13:44:38.889Z,27.60
2023-03-07T13:47:26.128Z,21.98
2023-03-07T13:49:53.674Z,19.53
2023-03-07T13:52:38.511Z,21.20
2023-03-07T13:55:13.436Z,22.48
2023-03-07T13:57:41.899Z,20.38
2023-03-07T14:00:22.435Z,20.40
2023-03-07T14:02:49.857Z,24.83
2023-03-07T14:05:18.155Z,22.50
2023-03-07T14:07:51.494Z,21.77
2023-03-07T14:10:28.196Z,21.00
2023-03-07T14:13:15.538Z,27.58
2023-03-07T14:16:03.334Z,21.60
2023-03-07T14:18:50.588Z,21.63
2023-03-07T14:21:32.584Z,22.73
2023-03-07T14:24:21.498Z,23.30
2023-03-07T14:26:56.293Z,23.38
2023-03-07T14:29:26.202Z,22.17
2023-03-07T14:31:54.882Z,20.07
2023-03-07T14:34:42.162Z,19.47
2023-03-07T14:37:17.123Z,22.00
2023-03-07T14:40:04.517Z,23.80
2023-03-07T14:42:51.771Z,23.03
2023-03-07T14:45:30.942Z,20.87
2023-03-07T14:48:18.224Z,21.70
2023-03-07T14:50:45.708Z,19.42
2023-03-07T14:53:16.366Z,21.90
2023-03-07T14:55:45.021Z,21.83
2023-03-07T14:58:21.018Z,23.50
2023-03-07T15:00:58.144Z,22.63
2023-03-07T15:03:25.565Z,46.73
2023-03-07T15:05:55.022Z,27.77
2023-03-07T15:08:42.264Z,20.43
2023-03-07T15:11:29.415Z,20.27
2023-03-07T15:14:16.628Z,22.50
2023-03-07T15:16:52.069Z,19.77
2023-03-07T15:21:48.450Z,20.33
2023-03-07T15:24:17.942Z,20.23
2023-03-07T15:26:54.623Z,19.07
2023-03-07T15:29:24.154Z,21.93
2023-03-07T15:32:11.469Z,17.50
2023-03-07T15:34:40.592Z,20.70
2023-03-07T15:37:24.820Z,19.23
2023-03-07T15:40:00.674Z,21.50
2023-03-07T15:42:28.317Z,21.07
2023-03-07T15:44:57.457Z,22.83
2023-03-07T15:47:25.402Z,20.37
2023-03-07T15:49:54.115Z,24.27
2023-03-07T15:52:25.779Z,27.30
2023-03-07T15:54:54.407Z,24.93
2023-03-07T15:57:41.699Z,22.77
2023-03-07T16:00:16.953Z,22.77
2023-03-07T16:02:46.120Z,26.20
2023-03-07T16:05:33.565Z,22.73
2023-03-07T16:08:01.026Z,26.58
2023-03-07T16:10:30.394Z,23.02
2023-03-07T16:12:58.024Z,19.90
2023-03-07T16:15:25.901Z,21.05
2023-03-07T16:17:56.239Z,22.30
2023-03-07T16:20:25.612Z,21.48
2023-03-07T16:22:53.106Z,20.93
2023-03-07T16:25:21.154Z,23.30
2023-03-07T16:27:53.485Z,21.02
2023-03-07T16:30:23.429Z,21.30
2023-03-07T16:32:51.114Z,22.73
2023-03-07T16:35:20.145Z,21.88
2023-03-07T16:37:47.758Z,23.33
2023-03-07T16:40:16.292Z,22.48
2023-03-07T16:42:44.946Z,20.52
2023-03-07T16:45:16.439Z,23.65
2023-03-07T16:47:43.795Z,21.13
2023-03-07T16:50:19.463Z,21.35
2023-03-07T16:52:46.855Z,21.52
2023-03-07T16:55:15.487Z,21.55
2023-03-07T16:57:44.567Z,23.30
2023-03-07T17:00:15.486Z,22.55
2023-03-07T17:02:43.044Z,26.35
2023-03-07T17:05:18.401Z,24.58
2023-03-07T17:08:01.746Z,22.50
2023-03-07T17:10:29.505Z,19.67
2023-03-07T17:12:57.765Z,19.67
2023-03-07T17:15:30.681Z,23.83
2023-03-07T17:18:08.142Z,21.33
2023-03-07T17:20:35.532Z,21.83
2023-03-07T17:23:03.012Z,25.83
2023-03-07T17:25:30.600Z,24.70
2023-03-07T17:28:02.429Z,19.58
2023-03-07T17:30:30.850Z,21.98
2023-03-07T17:32:58.900Z,34.33
2023-03-07T17:35:28.199Z,23.92
2023-03-07T17:37:55.589Z,17.15
2023-03-07T17:40:23.272Z,17.77
2023-03-07T17:42:51.605Z,17.25
2023-03-07T17:45:19.161Z,13.20
2023-03-07T17:47:50.310Z,12.57
2023-03-07T17:50:19.685Z,16.33
2023-03-07T17:52:46.989Z,13.85
2023-03-07T17:55:15.751Z,15.10
2023-03-07T17:57:43.586Z,13.02
2023-03-07T18:00:13.431Z,18.40
2023-03-07T18:02:43.905Z,17.23
2023-03-07T18:05:13.215Z,16.65
2023-03-07T18:07:42.135Z,13.80
2023-03-07T18:10:10.778Z,13.90
2023-03-07T18:12:39.499Z,12.25
2023-03-07T18:15:09.452Z,12.75
2023-03-07T18:17:47.328Z,11.68
2023-03-07T18:20:15.091Z,11.07
2023-03-07T18:22:42.973Z,9.40
2023-03-07T18:25:11.814Z,8.55
2023-03-07T18:27:39.215Z,9.38
2023-03-07T18:30:07.084Z,10.95
2023-03-07T18:32:34.542Z,8.80
2023-03-07T18:35:01.952Z,9.93
2023-03-07T18:37:29.540Z,13.10
2023-03-07T18:39:56.865Z,12.25
2023-03-07T18:42:24.198Z,14.15
2023-03-07T18:44:51.751Z,7.75
2023-03-07T18:47:19.057Z,13.93
2023-03-07T18:49:46.461Z,11.05
2023-03-07T18:52:13.784Z,9.30
2023-03-07T18:54:42.413Z,9.27
2023-03-07T18:57:09.769Z,10.45
2023-03-07T18:59:37.295Z,25.52
2023-03-07T19:02:04.855Z,25.98
2023-03-07T19:04:32.378Z,14.15
2023-03-07T19:07:00.869Z,10.38
2023-03-07T19:09:28.306Z,14.70
2023-03-07T19:11:55.836Z,9.95
2023-03-07T19:14:23.220Z,8.00
2023-03-07T19:16:50.566Z,10.35
2023-03-07T19:19:17.933Z,9.60
2023-03-07T19:21:45.321Z,10.80
2023-03-07T19:24:12.780Z,7.55
2023-03-07T19:26:41.715Z,9.43
2023-03-07T19:29:11.156Z,8.82
2023-03-07T19:31:38.646Z,10.25
2023-03-07T19:34:06.447Z,6.63
2023-03-07T19:36:35.356Z,8.20
2023-03-07T19:39:02.825Z,7.30
2023-03-07T19:41:31.574Z,6.65
2023-03-07T19:43:59.630Z,6.65
2023-03-07T19:46:27.293Z,7.18
2023-03-07T19:48:54.768Z,9.43
2023-03-07T19:51:23.466Z,9.02
2023-03-07T19:53:50.967Z,8.80
2023-03-07T19:56:23.277Z,10.85
2023-03-07T19:58:51.089Z,9.15
2023-03-07T20:01:19.379Z,8.30
2023-03-07T20:03:47.157Z,8.55
2023-03-07T20:06:18.720Z,9.13
2023-03-07T20:08:48.959Z,6.18
2023-03-07T20:11:17.853Z,8.10
2023-03-07T20:13:46.469Z,8.02
2023-03-07T20:16:15.120Z,10.18
2023-03-07T20:18:42.612Z,11.90
2023-03-07T20:21:11.242Z,11.43
2023-03-07T20:23:39.280Z,10.18
2023-03-07T20:26:09.062Z,6.93
2023-03-07T20:28:36.811Z,6.68
2023-03-07T20:31:05.822Z,8.75
2023-03-07T20:33:33.227Z,8.45
2023-03-07T20:36:03.742Z,6.43
2023-03-07T20:38:31.908Z,7.57
2023-03-07T20:41:03.904Z,8.95
2023-03-07T20:43:31.832Z,6.30
2023-03-07T20:46:03.935Z,7.10
2023-03-07T20:48:31.421Z,7.00
2023-03-07T20:51:05.285Z,8.73
2023-03-07T20:53:33.000Z,5.68
2023-03-07T20:56:05.777Z,4.88
2023-03-07T20:58:33.596Z,6.18
2023-03-07T21:01:01.339Z,5.30
2023-03-07T21:03:29.434Z,6.35
2023-03-07T21:05:57.833Z,5.90
2023-03-07T21:08:25.675Z,9.55
2023-03-07T21:11:13.247Z,9.05
2023-03-07T21:13:41.827Z,4.10
2023-03-07T21:16:15.301Z,9.20
2023-03-07T21:18:42.840Z,6.47
2023-03-07T21:21:11.544Z,6.55
2023-03-07T21:23:39.354Z,9.75
2023-03-07T21:26:26.597Z,8.05
2023-03-07T21:28:54.232Z,5.57
2023-03-07T21:31:23.059Z,6.03
2023-03-07T21:33:54.974Z,5.43
2023-03-07T21:37:02.078Z,2.97
2023-03-07T21:39:29.421Z,4.60
2023-03-07T21:41:56.877Z,7.55
2023-03-07T21:44:24.332Z,7.65
2023-03-07T21:46:51.737Z,5.97
2023-03-07T21:49:19.187Z,6.60
2023-03-07T21:51:46.570Z,6.00
2023-03-07T21:54:13.965Z,5.43
2023-03-07T21:56:41.516Z,3.95
2023-03-07T21:59:08.957Z,2.85
2023-03-07T22:01:36.342Z,4.75
2023-03-07T22:04:04.163Z,9.18
2023-03-07T22:06:31.589Z,8.57
2023-03-07T22:08:59.878Z,5.95
2023-03-07T22:11:27.417Z,9.75
2023-03-07T22:13:54.776Z,9.38
2023-03-07T22:16:22.396Z,8.50
2023-03-07T22:18:53.764Z,4.57
2023-03-07T22:21:21.690Z,5.55
2023-03-07T22:23:49.055Z,2.72
2023-03-07T22:26:16.555Z,6.50
2023-03-07T22:28:44.141Z,6.30
2023-03-07T22:31:12.981Z,5.13
2023-03-07T22:33:40.742Z,5.22
2023-03-07T22:36:08.932Z,7.20
2023-03-07T22:38:36.752Z,5.57
2023-03-07T22:41:05.781Z,4.00
2023-03-07T22:43:34.081Z,5.93
2023-03-07T22:46:01.754Z,7.75
2023-03-07T22:48:29.619Z,5.13
2023-03-07T22:50:57.057Z,5.13
2023-03-07T22:53:27.085Z,4.20
2023-03-07T22:55:54.888Z,6.85
2023-03-07T22:58:22.335Z,11.65
2023-03-07T23:00:49.683Z,9.15
2023-03-07T23:03:17.052Z,7.47
2023-03-07T23:05:46.917Z,5.93
2023-03-07T23:08:14.662Z,4.50
2023-03-07T23:10:42.106Z,4.95
2023-03-07T23:13:09.552Z,4.68
2023-03-07T23:15:39.825Z,8.90
2023-03-07T23:18:07.300Z,6.00
2023-03-07T23:20:36.771Z,4.07
2023-03-07T23:23:04.195Z,6.57
2023-03-07T23:25:33.072Z,4.70
2023-03-07T23:28:00.524Z,9.70
2023-03-07T23:30:28.063Z,4.82
2023-03-07T23:32:55.552Z,4.55
2023-03-07T23:35:24.071Z,8.35
2023-03-07T23:37:51.505Z,9.00
2023-03-07T23:40:19.156Z,5.70
2023-03-07T23:42:46.541Z,5.40
2023-03-07T23:45:14.027Z,6.50
2023-03-07T23:47:41.419Z,5.00
2023-03-07T23:50:09.238Z,3.70
2023-03-07T23:52:36.678Z,3.97
2023-03-07T23:55:04.185Z,2.72
2023-03-07T23:57:31.539Z,3.78
2023-03-07T23:59:58.937Z,3.58
